Time;durP1;ratioP1;P1;durP2;ratioP2;P2;SDS_P1;SDS_P2;PMS_P1;PMS_P2;Temp;Humidity;BMP_temperature;BMP_pressure;BME280_temperature;BME280_humidity;BME280_pressure;Samples;Min_cycle;Max_cycle;Signal;HPM_P1;HPM_P2
2021/08/23 00:15:05;;;;;;;6.70;4.80;;;;;;;;;;4973463;28;20137;31
2021/08/23 00:17:31;;;;;;;9.75;5.03;;;;;;;;;;4202804;34;20150;-68
2021/08/23 00:19:57;;;;;;;6.53;5.10;;;;;;;;;;4205458;34;20333;-68
2021/08/23 00:22:31;;;;;;;7.70;5.15;;;;;;;;;;4191743;34;20129;-69
2021/08/23 00:24:59;;;;;;;8.07;4.62;;;;;;;;;;4178543;34;20129;-68
2021/08/23 00:27:25;;;;;;;6.37;5.05;;;;;;;;;;4179095;34;20122;-69
2021/08/23 00:29:51;;;;;;;8.90;5.00;;;;;;;;;;4191726;34;20525;-68
2021/08/23 00:32:17;;;;;;;9.40;5.05;;;;;;;;;;4191541;34;20226;-69
2021/08/23 00:34:43;;;;;;;9.45;5.62;;;;;;;;;;4179201;34;20144;-69
2021/08/23 00:37:09;;;;;;;8.65;5.10;;;;;;;;;;4191521;34;20145;-68
2021/08/23 00:39:35;;;;;;;7.68;5.25;;;;;;;;;;4191924;34;20499;-69
2021/08/23 00:42:04;;;;;;;7.65;4.28;;;;;;;;;;4178622;34;20534;-67
2021/08/23 00:44:31;;;;;;;7.70;5.18;;;;;;;;;;4191569;34;20098;-68
2021/08/23 00:46:58;;;;;;;5.87;4.80;;;;;;;;;;4191499;34;20115;-68
2021/08/23 00:49:24;;;;;;;9.45;5.00;;;;;;;;;;4191387;34;20145;-68
2021/08/23 00:51:51;;;;;;;5.78;4.75;;;;;;;;;;4191713;34;20457;-68
2021/08/23 00:54:17;;;;;;;9.70;5.50;;;;;;;;;;4167644;34;20106;-69
2021/08/23 00:56:43;;;;;;;6.70;5.07;;;;;;;;;;4191437;34;20102;-68
2021/08/23 00:59:11;;;;;;;8.45;5.15;;;;;;;;;;4178718;34;20124;-68
2021/08/23 01:01:46;;;;;;;11.52;5.57;;;;;;;;;;4178642;34;20110;-68
2021/08/23 01:04:34;;;;;;;8.35;5.20;;;;;;;;;;4191659;34;20122;-68
2021/08/23 01:07:00;;;;;;;9.20;4.90;;;;;;;;;;4180469;34;20106;-68
2021/08/23 01:09:27;;;;;;;7.30;5.70;;;;;;;;;;4167246;34;20083;-68
2021/08/23 01:11:55;;;;;;;6.82;5.25;;;;;;;;;;4178431;34;20121;-68
2021/08/23 01:14:21;;;;;;;11.68;5.70;;;;;;;;;;4178498;34;20109;-68
2021/08/23 01:16:46;;;;;;;8.60;6.30;;;;;;;;;;4178135;34;20102;-68
2021/08/23 01:19:12;;;;;;;7.35;5.45;;;;;;;;;;4178721;34;20157;-68
2021/08/23 01:21:38;;;;;;;7.78;5.85;;;;;;;;;;4167119;34;20124;-68
2021/08/23 01:24:04;;;;;;;7.37;5.72;;;;;;;;;;4167254;34;20556;-68
2021/08/23 01:26:33;;;;;;;8.15;5.68;;;;;;;;;;4191594;34;20126;-68
2021/08/23 01:29:04;;;;;;;9.65;6.15;;;;;;;;;;4178345;34;20105;-68
2021/08/23 01:31:45;;;;;;;7.72;5.28;;;;;;;;;;4191339;34;20122;-68
2021/08/23 01:34:11;;;;;;;9.40;6.07;;;;;;;;;;4191261;34;20522;-68
2021/08/23 01:36:37;;;;;;;9.52;5.70;;;;;;;;;;4165930;34;20122;-68
2021/08/23 01:39:02;;;;;;;6.95;5.75;;;;;;;;;;4191075;34;20137;-69
2021/08/23 01:41:28;;;;;;;8.20;5.70;;;;;;;;;;4191133;34;20533;-69
2021/08/23 01:43:54;;;;;;;8.07;5.25;;;;;;;;;;4191076;34;20142;-69
2021/08/23 01:46:20;;;;;;;9.50;5.78;;;;;;;;;;4190986;34;20113;-69
2021/08/23 01:48:47;;;;;;;7.37;5.18;;;;;;;;;;4190952;34;20144;-69
2021/08/23 01:51:13;;;;;;;13.52;6.15;;;;;;;;;;4191017;34;20114;-68
2021/08/23 01:53:39;;;;;;;10.95;5.82;;;;;;;;;;4190978;34;20566;-69
2021/08/23 01:56:05;;;;;;;10.65;5.25;;;;;;;;;;4190975;34;20201;-68
2021/08/23 01:58:31;;;;;;;12.30;6.25;;;;;;;;;;4191181;34;20125;-69
2021/08/23 02:00:57;;;;;;;8.68;5.95;;;;;;;;;;4190922;34;20290;-69
2021/08/23 02:03:23;;;;;;;13.02;5.95;;;;;;;;;;4190633;34;20098;-69
2021/08/23 02:05:48;;;;;;;9.48;5.37;;;;;;;;;;4191092;34;20133;-69
2021/08/23 02:08:15;;;;;;;8.65;5.85;;;;;;;;;;4190948;34;20129;-69
2021/08/23 02:10:41;;;;;;;12.52;6.22;;;;;;;;;;4191028;34;20129;-69
2021/08/23 02:13:07;;;;;;;6.82;5.22;;;;;;;;;;4190720;34;20141;-69
2021/08/23 02:15:33;;;;;;;7.65;5.65;;;;;;;;;;4190687;34;20546;-69
2021/08/23 02:17:59;;;;;;;12.32;5.97;;;;;;;;;;4190902;34;20241;-69
2021/08/23 02:20:24;;;;;;;7.57;6.05;;;;;;;;;;4166769;34;20190;-69
2021/08/23 02:22:50;;;;;;;9.70;5.55;;;;;;;;;;4177870;34;20483;-66
2021/08/23 02:25:21;;;;;;;12.63;6.68;;;;;;;;;;4190741;34;20102;-67
2021/08/23 02:27:49;;;;;;;7.97;5.78;;;;;;;;;;4190495;34;20469;-67
2021/08/23 02:30:15;;;;;;;8.48;5.72;;;;;;;;;;4190569;34;20114;-66
2021/08/23 02:32:40;;;;;;;8.07;5.75;;;;;;;;;;4190487;34;20216;-66
2021/08/23 02:35:07;;;;;;;12.18;6.00;;;;;;;;;;4190309;34;20110;-67
2021/08/23 02:37:33;;;;;;;10.13;6.28;;;;;;;;;;4190505;34;20212;-66
2021/08/23 02:39:58;;;;;;;10.85;6.62;;;;;;;;;;4190679;34;20200;-66
2021/08/23 02:42:24;;;;;;;9.32;6.97;;;;;;;;;;4190400;34;20538;-66
2021/08/23 02:44:50;;;;;;;7.20;5.50;;;;;;;;;;4190435;34;20117;-67
2021/08/23 02:47:16;;;;;;;9.50;6.60;;;;;;;;;;4190181;34;20160;-67
2021/08/23 02:49:42;;;;;;;8.23;5.32;;;;;;;;;;4192532;34;20513;-68
2021/08/23 02:52:08;;;;;;;9.38;6.68;;;;;;;;;;4192437;34;20098;-67
2021/08/23 02:54:34;;;;;;;9.27;6.05;;;;;;;;;;4192515;34;20130;-66
2021/08/23 02:57:00;;;;;;;11.02;6.35;;;;;;;;;;4192294;34;20515;-69
2021/08/23 02:59:26;;;;;;;9.00;6.57;;;;;;;;;;4192660;34;20144;-66
2021/08/23 03:01:51;;;;;;;13.55;6.68;;;;;;;;;;4192742;34;20118;-67
2021/08/23 03:04:17;;;;;;;11.10;6.37;;;;;;;;;;4179622;34;20130;-66
2021/08/23 03:06:43;;;;;;;18.95;7.45;;;;;;;;;;4192327;34;20106;-67
2021/08/23 03:09:09;;;;;;;11.55;6.90;;;;;;;;;;4192318;34;20526;-68
2021/08/23 03:11:35;;;;;;;11.70;7.53;;;;;;;;;;4191842;34;20121;-68
2021/08/23 03:14:01;;;;;;;11.68;5.93;;;;;;;;;;4191246;34;20213;-68
2021/08/23 03:16:27;;;;;;;13.43;6.68;;;;;;;;;;4190875;34;20142;-68
2021/08/23 03:18:53;;;;;;;12.37;7.55;;;;;;;;;;4190394;34;20136;-68
2021/08/23 03:21:18;;;;;;;10.38;6.90;;;;;;;;;;4178504;34;20103;-68
2021/08/23 03:23:44;;;;;;;12.82;6.45;;;;;;;;;;4191186;34;20144;-66
2021/08/23 03:26:10;;;;;;;9.75;6.28;;;;;;;;;;4191270;34;20523;-69
2021/08/23 03:28:36;;;;;;;8.88;6.12;;;;;;;;;;4192142;34;20541;-69
2021/08/23 03:31:03;;;;;;;12.98;6.72;;;;;;;;;;4192200;34;20189;-69
2021/08/23 03:33:29;;;;;;;8.73;5.95;;;;;;;;;;4190826;34;20105;-68
2021/08/23 03:35:54;;;;;;;13.88;6.82;;;;;;;;;;4192207;34;20110;-68
2021/08/23 03:38:20;;;;;;;9.23;6.90;;;;;;;;;;4192080;34;20201;-68
2021/08/23 03:40:46;;;;;;;11.73;6.03;;;;;;;;;;4192037;34;20125;-68
2021/08/23 03:43:12;;;;;;;12.35;6.65;;;;;;;;;;4192099;34;20134;-68
2021/08/23 03:45:38;;;;;;;12.18;6.85;;;;;;;;;;4192320;34;20122;-68
2021/08/23 03:48:04;;;;;;;12.37;7.57;;;;;;;;;;4192187;34;20141;-68
2021/08/23 03:50:30;;;;;;;9.68;5.80;;;;;;;;;;4192234;34;20126;-68
2021/08/23 03:52:56;;;;;;;10.98;6.72;;;;;;;;;;4191970;34;20136;-68
2021/08/23 03:55:22;;;;;;;11.93;6.97;;;;;;;;;;4192148;34;20113;-68
2021/08/23 03:57:48;;;;;;;11.07;6.82;;;;;;;;;;4192251;34;20121;-68
2021/08/23 04:00:14;;;;;;;8.18;6.78;;;;;;;;;;4178399;34;20186;-69
2021/08/23 04:02:40;;;;;;;11.57;7.03;;;;;;;;;;4191913;34;20126;-69
2021/08/23 04:05:06;;;;;;;8.98;7.05;;;;;;;;;;4192058;34;20106;-69
2021/08/23 04:07:32;;;;;;;13.77;6.28;;;;;;;;;;4192214;34;20093;-69
2021/08/23 04:09:58;;;;;;;12.70;8.18;;;;;;;;;;4191755;34;20195;-70
2021/08/23 04:12:24;;;;;;;10.13;7.30;;;;;;;;;;4191914;34;20115;-70
2021/08/23 04:14:50;;;;;;;10.98;7.53;;;;;;;;;;4191943;34;20126;-69
2021/08/23 04:17:16;;;;;;;11.63;7.03;;;;;;;;;;4178679;34;20132;-71
2021/08/23 04:19:42;;;;;;;11.52;6.87;;;;;;;;;;4191769;34;20521;-71
2021/08/23 04:22:11;;;;;;;9.07;6.57;;;;;;;;;;4191614;34;20198;-72
2021/08/23 04:24:40;;;;;;;10.90;6.45;;;;;;;;;;4191592;34;20142;-70
2021/08/23 04:27:06;;;;;;;9.57;6.82;;;;;;;;;;4191708;34;20090;-71
2021/08/23 04:29:32;;;;;;;9.80;7.40;;;;;;;;;;4191526;34;20205;-71
2021/08/23 04:31:58;;;;;;;13.23;7.93;;;;;;;;;;4191451;34;20194;-71
2021/08/23 04:34:24;;;;;;;12.77;7.47;;;;;;;;;;4191847;34;20118;-72
2021/08/23 04:36:49;;;;;;;13.60;6.45;;;;;;;;;;4191451;34;20121;-72
2021/08/23 04:39:15;;;;;;;15.27;7.82;;;;;;;;;;4191686;34;20232;-71
2021/08/23 04:41:42;;;;;;;9.90;6.70;;;;;;;;;;4191616;34;20122;-72
2021/08/23 04:44:08;;;;;;;12.20;6.72;;;;;;;;;;4178864;34;20565;-73
2021/08/23 04:46:34;;;;;;;9.52;6.60;;;;;;;;;;4191446;34;20129;-70
2021/08/23 04:49:00;;;;;;;13.77;6.90;;;;;;;;;;4191702;34;20510;-70
2021/08/23 04:51:26;;;;;;;7.70;5.90;;;;;;;;;;4191439;34;20112;-69
2021/08/23 04:53:51;;;;;;;19.02;8.00;;;;;;;;;;4191723;34;20134;-70
2021/08/23 04:56:17;;;;;;;7.70;3.85;;;;;;;;;;4191561;34;20125;-71
2021/08/23 04:58:44;;;;;;;10.95;6.43;;;;;;;;;;4191578;34;20126;-69
2021/08/23 05:01:10;;;;;;;11.57;7.10;;;;;;;;;;4191493;34;20559;-71
2021/08/23 05:03:36;;;;;;;10.73;7.43;;;;;;;;;;4191541;34;20238;-72
2021/08/23 05:06:01;;;;;;;11.30;7.05;;;;;;;;;;4191449;34;20106;-72
2021/08/23 05:08:27;;;;;;;14.05;8.40;;;;;;;;;;4191560;34;20150;-72
2021/08/23 05:10:53;;;;;;;10.63;7.22;;;;;;;;;;4178196;34;20133;-72
2021/08/23 05:13:19;;;;;;;9.38;5.80;;;;;;;;;;4178448;34;20133;-71
2021/08/23 05:15:45;;;;;;;9.43;6.97;;;;;;;;;;4191030;34;20220;-71
2021/08/23 05:18:11;;;;;;;8.73;6.97;;;;;;;;;;4191251;34;20098;-72
2021/08/23 05:20:37;;;;;;;8.88;7.10;;;;;;;;;;4190915;34;20115;-71
2021/08/23 05:23:03;;;;;;;12.65;7.10;;;;;;;;;;4191243;34;20590;-68
2021/08/23 05:25:29;;;;;;;11.07;8.02;;;;;;;;;;4191084;34;20538;-72
2021/08/23 05:27:55;;;;;;;7.85;5.55;;;;;;;;;;4178252;34;20241;-71
2021/08/23 05:30:20;;;;;;;9.18;6.03;;;;;;;;;;4178276;34;20526;-71
2021/08/23 05:32:46;;;;;;;7.45;6.35;;;;;;;;;;4178354;34;20141;-69
2021/08/23 05:35:12;;;;;;;11.07;7.47;;;;;;;;;;4191181;34;20100;-71
2021/08/23 05:37:38;;;;;;;9.43;6.80;;;;;;;;;;4190989;34;20471;-69
2021/08/23 05:40:06;;;;;;;6.90;5.40;;;;;;;;;;4178249;34;20103;-69
2021/08/23 05:42:32;;;;;;;13.68;6.35;;;;;;;;;;4190997;34;20114;-71
2021/08/23 05:44:58;;;;;;;9.98;5.95;;;;;;;;;;4191148;34;20122;-71
2021/08/23 05:47:24;;;;;;;11.20;6.37;;;;;;;;;;4190858;34;20113;-70
2021/08/23 05:49:50;;;;;;;7.90;6.47;;;;;;;;;;4190899;34;20134;-71
2021/08/23 05:52:15;;;;;;;7.80;5.55;;;;;;;;;;4190887;34;20486;-70
2021/08/23 05:54:43;;;;;;;8.63;5.40;;;;;;;;;;4190993;34;20094;-69
2021/08/23 05:57:09;;;;;;;8.13;6.30;;;;;;;;;;4190893;34;20222;-71
2021/08/23 05:59:35;;;;;;;8.02;5.53;;;;;;;;;;4178068;34;20471;-69
2021/08/23 06:02:01;;;;;;;7.28;5.35;;;;;;;;;;4190608;34;20537;-70
2021/08/23 06:04:27;;;;;;;9.02;5.37;;;;;;;;;;4190762;34;20149;-68
2021/08/23 06:06:53;;;;;;;10.93;7.05;;;;;;;;;;4190824;34;20133;-69
2021/08/23 06:09:19;;;;;;;8.07;6.00;;;;;;;;;;4190694;34;20125;-69
2021/08/23 06:11:45;;;;;;;10.27;7.20;;;;;;;;;;4190756;34;20106;-70
2021/08/23 06:14:11;;;;;;;7.10;5.03;;;;;;;;;;4190638;34;20122;-71
2021/08/23 06:16:37;;;;;;;7.20;5.00;;;;;;;;;;4190574;34;20114;-68
2021/08/23 06:19:03;;;;;;;12.10;6.20;;;;;;;;;;4166803;34;20229;-67
2021/08/23 06:21:29;;;;;;;10.73;6.80;;;;;;;;;;4190750;34;20114;-71
2021/08/23 06:23:55;;;;;;;9.48;5.03;;;;;;;;;;4179495;34;20122;-71
2021/08/23 06:26:21;;;;;;;8.20;6.78;;;;;;;;;;4180084;34;20206;-72
2021/08/23 06:28:47;;;;;;;9.70;6.72;;;;;;;;;;4180121;34;20137;-72
2021/08/23 06:31:13;;;;;;;6.00;4.28;;;;;;;;;;4192926;34;20106;-73
2021/08/23 06:33:38;;;;;;;8.00;4.62;;;;;;;;;;4168631;34;20213;-71
2021/08/23 06:36:04;;;;;;;9.93;6.03;;;;;;;;;;4179755;34;20218;-72
2021/08/23 06:38:30;;;;;;;8.77;6.70;;;;;;;;;;4192692;34;20582;-73
2021/08/23 06:40:56;;;;;;;9.48;5.47;;;;;;;;;;4192840;34;20495;-71
2021/08/23 06:43:22;;;;;;;8.30;6.15;;;;;;;;;;4192498;34;20137;-74
2021/08/23 06:45:48;;;;;;;10.32;6.22;;;;;;;;;;4192361;34;20110;-71
2021/08/23 06:48:14;;;;;;;7.60;4.30;;;;;;;;;;4192420;34;20134;-72
2021/08/23 06:50:40;;;;;;;6.72;5.18;;;;;;;;;;4192335;34;20201;-72
2021/08/23 06:53:05;;;;;;;9.82;6.68;;;;;;;;;;4192555;34;20140;-73
2021/08/23 06:55:32;;;;;;;13.05;6.35;;;;;;;;;;4192471;34;20144;-73
2021/08/23 06:57:59;;;;;;;8.80;5.82;;;;;;;;;;4192443;34;20241;-72
2021/08/23 07:00:25;;;;;;;10.20;5.82;;;;;;;;;;4192543;34;20108;-72
2021/08/23 07:02:50;;;;;;;9.15;5.57;;;;;;;;;;4192524;34;20546;-69
2021/08/23 07:05:16;;;;;;;9.82;5.80;;;;;;;;;;4192321;34;20126;-69
2021/08/23 07:07:42;;;;;;;8.52;4.25;;;;;;;;;;4192313;34;20633;-69
2021/08/23 07:10:11;;;;;;;17.37;6.40;;;;;;;;;;4192269;34;20283;-68
2021/08/23 07:12:37;;;;;;;8.98;5.75;;;;;;;;;;4192212;34;20121;-69
2021/08/23 07:15:04;;;;;;;8.65;6.60;;;;;;;;;;4192467;34;20561;-69
2021/08/23 07:17:29;;;;;;;9.73;5.45;;;;;;;;;;4192240;34;20114;-69
2021/08/23 07:19:55;;;;;;;5.47;4.70;;;;;;;;;;4192120;34;20144;-68
2021/08/23 07:22:22;;;;;;;11.10;5.60;;;;;;;;;;4192173;34;20137;-69
2021/08/23 07:24:48;;;;;;;10.88;6.12;;;;;;;;;;4179647;34;20144;-69
2021/08/23 07:27:14;;;;;;;11.93;7.03;;;;;;;;;;4192419;34;20125;-70
2021/08/23 07:29:40;;;;;;;10.98;5.12;;;;;;;;;;4179299;34;20213;-69
2021/08/23 07:32:06;;;;;;;9.70;5.53;;;;;;;;;;4179309;34;20114;-71
2021/08/23 07:34:32;;;;;;;8.50;5.15;;;;;;;;;;4191239;34;20524;-70
2021/08/23 07:36:58;;;;;;;8.40;5.12;;;;;;;;;;4192083;34;20134;-70
2021/08/23 07:39:24;;;;;;;6.82;5.35;;;;;;;;;;4192077;34;20217;-65
2021/08/23 07:41:50;;;;;;;9.27;5.35;;;;;;;;;;4192320;34;20106;-65
2021/08/23 07:44:16;;;;;;;8.85;4.78;;;;;;;;;;4192156;34;20110;-66
2021/08/23 07:46:42;;;;;;;6.05;4.45;;;;;;;;;;4186481;34;20614;-66
2021/08/23 07:49:07;;;;;;;7.03;5.35;;;;;;;;;;4192284;34;20114;-67
2021/08/23 07:51:34;;;;;;;6.20;4.95;;;;;;;;;;4191954;34;20117;-67
2021/08/23 07:53:59;;;;;;;5.30;4.43;;;;;;;;;;4191999;34;20533;-67
2021/08/23 07:56:26;;;;;;;8.98;6.40;;;;;;;;;;4192031;34;20138;-67
2021/08/23 07:58:52;;;;;;;7.68;4.57;;;;;;;;;;4191928;34;20133;-67
2021/08/23 08:01:19;;;;;;;9.38;5.40;;;;;;;;;;4191899;34;20137;-67
2021/08/23 08:03:45;;;;;;;7.50;4.93;;;;;;;;;;4179489;34;20431;-67
2021/08/23 08:06:11;;;;;;;8.70;5.43;;;;;;;;;;4191976;34;20112;-67
2021/08/23 08:08:37;;;;;;;5.28;4.78;;;;;;;;;;4191954;34;20105;-67
2021/08/23 08:11:03;;;;;;;7.78;5.22;;;;;;;;;;4191822;34;20097;-66
2021/08/23 08:13:29;;;;;;;8.25;5.50;;;;;;;;;;4192011;34;20462;-65
2021/08/23 08:15:54;;;;;;;6.25;4.80;;;;;;;;;;4191585;34;20122;-66
2021/08/23 08:18:20;;;;;;;6.05;4.25;;;;;;;;;;4191959;34;20130;-66
2021/08/23 08:20:46;;;;;;;5.95;4.22;;;;;;;;;;4191847;34;20538;-67
2021/08/23 08:23:12;;;;;;;5.47;4.15;;;;;;;;;;4191823;34;20100;-67
2021/08/23 08:25:38;;;;;;;12.98;5.30;;;;;;;;;;4178970;34;20126;-66
2021/08/23 08:28:06;;;;;;;5.95;4.72;;;;;;;;;;4191840;34;20125;-65
2021/08/23 08:30:32;;;;;;;6.53;4.32;;;;;;;;;;4191675;34;20471;-66
2021/08/23 08:32:57;;;;;;;6.32;4.85;;;;;;;;;;4191829;34;20225;-66
2021/08/23 08:35:24;;;;;;;8.02;4.72;;;;;;;;;;4190843;34;20172;-68
2021/08/23 08:37:52;;;;;;;8.82;5.22;;;;;;;;;;4191557;34;20571;-69
2021/08/23 08:40:19;;;;;;;4.57;3.97;;;;;;;;;;4191654;34;20488;-69
2021/08/23 08:42:45;;;;;;;6.50;4.65;;;;;;;;;;4191705;34;20285;-70
2021/08/23 08:45:11;;;;;;;5.53;4.43;;;;;;;;;;4178412;34;20466;-70
2021/08/23 08:47:41;;;;;;;5.22;4.18;;;;;;;;;;4178789;34;20104;-69
2021/08/23 08:50:08;;;;;;;5.15;3.90;;;;;;;;;;4191599;34;20532;-70
2021/08/23 08:52:35;;;;;;;7.97;4.70;;;;;;;;;;4191628;34;20187;-69
2021/08/23 08:55:00;;;;;;;4.85;4.35;;;;;;;;;;4191487;34;20116;-71
2021/08/23 08:57:26;;;;;;;6.00;4.72;;;;;;;;;;4191577;34;20474;-67
2021/08/23 08:59:52;;;;;;;8.57;5.22;;;;;;;;;;4191606;34;20108;-69
2021/08/23 09:02:18;;;;;;;7.68;5.22;;;;;;;;;;4191362;34;20125;-69
2021/08/23 09:04:44;;;;;;;6.22;4.90;;;;;;;;;;4191647;34;20090;-70
2021/08/23 09:07:13;;;;;;;6.75;5.45;;;;;;;;;;4191678;34;20174;-69
2021/08/23 09:09:39;;;;;;;5.95;4.40;;;;;;;;;;4192712;34;20109;-68
2021/08/23 09:12:06;;;;;;;10.93;4.60;;;;;;;;;;4205054;34;20104;-68
2021/08/23 09:14:32;;;;;;;6.80;3.72;;;;;;;;;;4205109;34;20235;-69
2021/08/23 09:17:08;;;;;;;9.13;4.70;;;;;;;;;;4204938;34;20126;-68
2021/08/23 09:19:36;;;;;;;5.28;4.60;;;;;;;;;;4205339;34;20196;-69
2021/08/23 09:22:04;;;;;;;7.40;4.75;;;;;;;;;;4205057;34;20108;-68
2021/08/23 09:24:31;;;;;;;7.10;5.12;;;;;;;;;;4205028;34;20117;-68
2021/08/23 09:27:07;;;;;;;6.12;4.15;;;;;;;;;;4204932;34;20534;-70
2021/08/23 09:30:00;;;;;;;9.05;4.25;;;;;;;;;;4204945;34;20183;-73
2021/08/23 09:32:31;;;;;;;7.50;5.60;;;;;;;;;;4198025;34;20272;-72
2021/08/23 09:34:57;;;;;;;6.65;4.47;;;;;;;;;;4191987;34;20141;-72
2021/08/23 09:37:24;;;;;;;5.53;4.37;;;;;;;;;;4192076;34;20148;-72
2021/08/23 09:39:50;;;;;;;6.47;4.62;;;;;;;;;;4204948;34;20096;-71
2021/08/23 09:42:20;;;;;;;5.47;4.55;;;;;;;;;;4192049;34;20133;-72
2021/08/23 09:44:46;;;;;;;7.12;4.85;;;;;;;;;;4192017;34;20200;-71
2021/08/23 09:47:12;;;;;;;6.47;4.22;;;;;;;;;;4180807;34;20133;-71
2021/08/23 09:49:39;;;;;;;6.57;5.25;;;;;;;;;;4204678;34;20209;-70
2021/08/23 09:52:05;;;;;;;4.78;3.45;;;;;;;;;;4180468;34;20129;-70
2021/08/23 09:54:31;;;;;;;6.75;5.15;;;;;;;;;;4204823;34;20189;-70
2021/08/23 09:56:57;;;;;;;5.37;4.82;;;;;;;;;;4204395;34;20175;-70
2021/08/23 09:59:28;;;;;;;10.93;4.57;;;;;;;;;;4191516;34;20237;-69
2021/08/23 10:01:55;;;;;;;7.25;4.90;;;;;;;;;;4191811;34;20102;-70
2021/08/23 10:04:21;;;;;;;7.50;4.93;;;;;;;;;;4204785;34;20112;-71
2021/08/23 10:06:48;;;;;;;6.55;5.40;;;;;;;;;;4204507;34;20137;-70
2021/08/23 10:09:19;;;;;;;8.27;4.97;;;;;;;;;;4204808;34;20113;-71
2021/08/23 10:11:45;;;;;;;5.55;4.10;;;;;;;;;;4204451;34;20109;-70
2021/08/23 10:14:11;;;;;;;6.15;4.22;;;;;;;;;;4204833;34;20118;-70
2021/08/23 10:16:37;;;;;;;6.93;4.68;;;;;;;;;;4180040;34;20132;-70
2021/08/23 10:19:04;;;;;;;8.55;4.57;;;;;;;;;;4191623;34;20153;-70
2021/08/23 10:21:30;;;;;;;5.28;4.32;;;;;;;;;;4204560;34;20133;-70
2021/08/23 10:23:57;;;;;;;7.80;4.60;;;;;;;;;;4191546;34;20129;-71
2021/08/23 10:26:23;;;;;;;8.73;4.87;;;;;;;;;;4204263;34;20102;-72
2021/08/23 10:28:49;;;;;;;7.57;4.57;;;;;;;;;;4191573;34;20237;-70
2021/08/23 10:31:17;;;;;;;4.97;3.85;;;;;;;;;;4204431;34;20216;-71
2021/08/23 10:33:43;;;;;;;5.50;4.00;;;;;;;;;;4191540;34;20110;-69
2021/08/23 10:36:15;;;;;;;7.65;4.68;;;;;;;;;;4191451;34;20113;-70
2021/08/23 10:38:44;;;;;;;5.32;3.42;;;;;;;;;;4204301;34;20136;-67
2021/08/23 10:41:24;;;;;;;7.57;3.22;;;;;;;;;;4204176;34;20098;-68
2021/08/23 10:43:57;;;;;;;9.45;4.32;;;;;;;;;;4204280;34;20201;-67
2021/08/23 10:46:28;;;;;;;8.63;5.55;;;;;;;;;;4204416;34;20205;-67
2021/08/23 10:48:55;;;;;;;6.32;5.03;;;;;;;;;;4191578;34;20505;-70
2021/08/23 10:51:37;;;;;;;7.28;5.12;;;;;;;;;;4204116;34;20446;-71
2021/08/23 10:54:43;;;;;;;6.55;5.05;;;;;;;;;;4191569;34;20205;-69
2021/08/23 10:57:10;;;;;;;6.22;4.70;;;;;;;;;;4133666;34;20188;-70
2021/08/23 10:59:56;;;;;;;10.80;4.78;;;;;;;;;;4192192;34;20138;-69
2021/08/23 11:02:32;;;;;;;9.52;4.62;;;;;;;;;;4204381;34;20094;-69
2021/08/23 11:05:01;;;;;;;8.95;4.78;;;;;;;;;;4191532;34;20114;-69
2021/08/23 11:07:28;;;;;;;6.12;4.37;;;;;;;;;;4204343;34;20134;-69
2021/08/23 11:10:24;;;;;;;7.93;4.53;;;;;;;;;;4205627;34;20125;-69
2021/08/23 11:12:50;;;;;;;8.40;4.75;;;;;;;;;;4204085;34;20535;-69
2021/08/23 11:15:26;;;;;;;5.10;4.22;;;;;;;;;;4205987;34;20151;-69
2021/08/23 11:18:01;;;;;;;5.43;4.85;;;;;;;;;;4206295;34;20117;-70
2021/08/23 11:20:29;;;;;;;7.25;4.90;;;;;;;;;;4194107;34;20113;-70
2021/08/23 11:22:57;;;;;;;7.45;4.22;;;;;;;;;;4206049;34;20086;-69
2021/08/23 11:25:46;;;;;;;4.35;2.62;;;;;;;;;;4205941;34;20521;-68
2021/08/23 11:28:13;;;;;;;6.87;4.40;;;;;;;;;;4206318;34;20192;-68
2021/08/23 11:30:41;;;;;;;6.32;4.15;;;;;;;;;;4206079;34;20114;-68
2021/08/23 11:33:08;;;;;;;8.68;4.30;;;;;;;;;;4206285;34;20113;-69
2021/08/23 11:35:34;;;;;;;6.45;4.78;;;;;;;;;;4205861;34;20113;-70
2021/08/23 11:38:05;;;;;;;4.90;4.35;;;;;;;;;;4205838;34;20207;-70
2021/08/23 11:40:31;;;;;;;10.48;5.32;;;;;;;;;;4206097;34;20153;-70
2021/08/23 11:42:59;;;;;;;6.20;4.87;;;;;;;;;;4193042;34;20630;-68
2021/08/23 11:45:27;;;;;;;6.68;5.10;;;;;;;;;;4205912;34;20104;-69
2021/08/23 11:47:53;;;;;;;5.03;4.10;;;;;;;;;;4206006;34;20095;-69
2021/08/23 11:50:19;;;;;;;8.45;4.72;;;;;;;;;;4205814;34;20597;-70
2021/08/23 11:52:49;;;;;;;7.60;4.62;;;;;;;;;;4206161;34;20197;-70
2021/08/23 11:55:31;;;;;;;10.20;4.12;;;;;;;;;;4193149;34;20113;-71
2021/08/23 11:57:58;;;;;;;5.72;4.50;;;;;;;;;;4193368;34;20497;-71
2021/08/23 12:00:24;;;;;;;5.65;4.60;;;;;;;;;;4205830;34;20110;-69
2021/08/23 12:03:00;;;;;;;7.75;4.30;;;;;;;;;;4205993;34;20133;-70
2021/08/23 12:05:26;;;;;;;6.55;4.22;;;;;;;;;;4192887;34;20510;-72
2021/08/23 12:07:52;;;;;;;6.90;4.35;;;;;;;;;;4181467;34;20110;-70
2021/08/23 12:10:49;;;;;;;8.75;6.22;;;;;;;;;;4205701;34;20191;-71
2021/08/23 12:13:16;;;;;;;8.57;4.62;;;;;;;;;;4205016;34;20121;-71
2021/08/23 12:15:53;;;;;;;5.93;4.30;;;;;;;;;;4192776;34;20094;-71
2021/08/23 12:18:28;;;;;;;8.05;4.87;;;;;;;;;;4193382;34;20110;-69
2021/08/23 12:21:22;;;;;;;6.82;4.82;;;;;;;;;;4205179;34;20106;-69
2021/08/23 12:23:55;;;;;;;11.63;4.20;;;;;;;;;;4205635;34;20205;-69
2021/08/23 12:26:41;;;;;;;6.87;4.28;;;;;;;;;;4193006;34;20106;-69
2021/08/23 12:29:28;;;;;;;8.80;5.10;;;;;;;;;;4205621;34;20105;-69
2021/08/23 12:31:55;;;;;;;10.70;4.60;;;;;;;;;;4205380;34;20155;-70
2021/08/23 12:34:25;;;;;;;5.12;3.47;;;;;;;;;;4205417;34;20161;-69
2021/08/23 12:36:51;;;;;;;9.75;3.72;;;;;;;;;;4192449;34;20113;-72
2021/08/23 12:39:18;;;;;;;8.98;3.92;;;;;;;;;;4205404;34;20193;-71
2021/08/23 12:41:46;;;;;;;8.85;5.03;;;;;;;;;;4192489;34;20467;-71
2021/08/23 12:44:12;;;;;;;5.20;3.90;;;;;;;;;;4205380;34;20183;-71
2021/08/23 12:46:38;;;;;;;7.72;4.47;;;;;;;;;;4205508;34;20179;-71
2021/08/23 12:49:05;;;;;;;5.07;3.35;;;;;;;;;;4192698;34;20129;-72
2021/08/23 12:51:31;;;;;;;5.62;4.25;;;;;;;;;;4205289;34;20133;-72
2021/08/23 12:53:57;;;;;;;5.80;3.90;;;;;;;;;;4205300;34;20129;-73
2021/08/23 12:56:23;;;;;;;5.25;3.95;;;;;;;;;;4192600;34;20117;-73
2021/08/23 12:58:49;;;;;;;4.35;3.42;;;;;;;;;;4191461;34;20110;-72
2021/08/23 13:01:16;;;;;;;5.00;4.30;;;;;;;;;;4192347;34;20499;-71
2021/08/23 13:03:42;;;;;;;5.32;3.87;;;;;;;;;;4192264;34;20145;-71
2021/08/23 13:06:08;;;;;;;9.88;4.62;;;;;;;;;;4192525;34;20129;-71
2021/08/23 13:08:34;;;;;;;5.97;4.00;;;;;;;;;;4205112;34;20152;-70
2021/08/23 13:11:00;;;;;;;6.60;4.30;;;;;;;;;;4205338;34;20167;-71
2021/08/23 13:13:27;;;;;;;8.30;4.78;;;;;;;;;;4205077;34;20478;-72
2021/08/23 13:15:53;;;;;;;15.85;5.05;;;;;;;;;;4192249;34;20125;-71
2021/08/23 13:18:19;;;;;;;8.13;4.20;;;;;;;;;;4205387;34;20121;-71
2021/08/23 13:20:45;;;;;;;6.03;3.40;;;;;;;;;;4204991;34;20133;-73
2021/08/23 13:23:14;;;;;;;7.53;4.87;;;;;;;;;;4192220;34;20556;-71
2021/08/23 13:25:40;;;;;;;7.15;4.57;;;;;;;;;;4205110;34;20089;-72
2021/08/23 13:28:07;;;;;;;10.80;5.68;;;;;;;;;;4192448;34;20509;-71
2021/08/23 13:30:34;;;;;;;6.03;4.53;;;;;;;;;;4192360;34;20125;-72
2021/08/23 13:33:03;;;;;;;15.00;4.75;;;;;;;;;;4192274;34;20193;-72
2021/08/23 13:35:36;;;;;;;7.53;4.50;;;;;;;;;;4205153;34;20113;-71
2021/08/23 13:38:04;;;;;;;23.30;11.15;;;;;;;;;;4204869;34;20527;-71
2021/08/23 13:40:30;;;;;;;31.08;15.15;;;;;;;;;;4204808;34;20114;-71
2021/08/23 13:42:56;;;;;;;10.70;6.50;;;;;;;;;;4205147;34;20128;-71
2021/08/23 13:45:23;;;;;;;9.27;4.50;;;;;;;;;;4204715;34;20141;-71
2021/08/23 13:47:49;;;;;;;10.50;5.97;;;;;;;;;;4205066;34;20559;-70
2021/08/23 13:50:15;;;;;;;8.98;4.25;;;;;;;;;;4204506;34;20118;-72
2021/08/23 13:52:41;;;;;;;5.60;3.90;;;;;;;;;;4205014;34;20229;-71
2021/08/23 13:55:07;;;;;;;9.05;3.97;;;;;;;;;;4204644;34;20126;-72
2021/08/23 13:57:34;;;;;;;5.50;3.17;;;;;;;;;;4204403;34;20112;-70
2021/08/23 14:00:01;;;;;;;5.03;3.67;;;;;;;;;;4204881;34;20109;-73
2021/08/23 14:02:27;;;;;;;4.35;2.95;;;;;;;;;;4204673;34;20098;-70
2021/08/23 14:04:53;;;;;;;9.55;3.78;;;;;;;;;;4204646;34;20637;-71
2021/08/23 14:07:20;;;;;;;4.10;3.05;;;;;;;;;;4191268;34;20124;-71
2021/08/23 14:09:46;;;;;;;8.85;4.45;;;;;;;;;;4204353;34;20106;-71
2021/08/23 14:12:12;;;;;;;7.25;4.10;;;;;;;;;;4204379;34;20113;-71
2021/08/23 14:14:38;;;;;;;9.38;4.35;;;;;;;;;;4204596;34;20121;-70
2021/08/23 14:17:09;;;;;;;7.20;4.05;;;;;;;;;;4203243;34;20122;-73
2021/08/23 14:19:36;;;;;;;9.82;4.60;;;;;;;;;;4204288;34;20157;-72
2021/08/23 14:22:11;;;;;;;5.40;3.60;;;;;;;;;;4203622;34;20102;-77
2021/08/23 14:24:37;;;;;;;7.68;3.70;;;;;;;;;;4204701;34;20473;-73
2021/08/23 14:27:03;;;;;;;22.92;3.80;;;;;;;;;;4191453;34;20561;-72
2021/08/23 14:29:29;;;;;;;10.48;3.78;;;;;;;;;;4204176;34;20550;-72
2021/08/23 14:31:58;;;;;;;5.90;3.03;;;;;;;;;;4191611;34;20118;-72
2021/08/23 14:34:25;;;;;;;6.90;4.12;;;;;;;;;;4204295;34;20094;-72
2021/08/23 14:36:51;;;;;;;7.15;4.37;;;;;;;;;;4204430;34;20262;-72
2021/08/23 14:39:17;;;;;;;4.97;3.83;;;;;;;;;;4204200;34;20129;-71
2021/08/23 14:41:43;;;;;;;8.60;4.12;;;;;;;;;;4204525;34;20117;-71
2021/08/23 14:44:09;;;;;;;6.10;3.65;;;;;;;;;;4205007;34;20606;-70
2021/08/23 14:46:35;;;;;;;9.52;3.72;;;;;;;;;;4182482;34;20118;-71
2021/08/23 14:49:06;;;;;;;9.43;4.10;;;;;;;;;;4206305;34;20880;-70
2021/08/23 14:51:33;;;;;;;8.52;4.07;;;;;;;;;;4206276;34;20102;-70
2021/08/23 14:53:59;;;;;;;7.62;4.35;;;;;;;;;;4206262;34;20106;-69
2021/08/23 14:56:24;;;;;;;6.25;4.12;;;;;;;;;;4206606;34;20140;-69